createdAt,value
2019-05-13T00:02:27.593Z,40
2019-05-13T00:12:30.929Z,40
2019-05-13T00:22:34.266Z,40
2019-05-13T00:32:37.660Z,40
2019-05-13T00:42:40.990Z,40
2019-05-13T00:52:45.209Z,40
2019-05-13T01:02:48.570Z,40
2019-05-13T01:12:54.130Z,40
2019-05-13T01:22:57.475Z,40
2019-05-13T01:33:00.815Z,40
2019-05-13T01:43:04.329Z,40
2019-05-13T01:53:07.651Z,39
2019-05-13T02:03:10.976Z,39
2019-05-13T02:13:14.970Z,39
2019-05-13T02:23:18.302Z,39
2019-05-13T02:33:23.416Z,39
2019-05-13T02:43:26.751Z,39
2019-05-13T02:53:34.057Z,39
2019-05-13T03:03:37.405Z,39
2019-05-13T03:13:42.833Z,38
2019-05-13T03:23:46.204Z,38
2019-05-13T03:33:57.044Z,38
2019-05-13T03:44:02.808Z,38
2019-05-13T03:54:06.169Z,38
2019-05-13T04:04:12.969Z,38
2019-05-13T04:14:16.308Z,38
2019-05-13T04:24:23.357Z,37
2019-05-13T04:34:26.705Z,37
2019-05-13T04:44:32.926Z,37
2019-05-13T04:54:36.302Z,38
2019-05-13T05:04:43.171Z,39
2019-05-13T05:14:47.042Z,39
2019-05-13T05:24:52.310Z,44
2019-05-13T05:34:55.657Z,49
2019-05-13T05:44:58.962Z,50
2019-05-13T05:55:02.761Z,50
2019-05-13T06:05:06.108Z,50
2019-05-13T06:15:09.435Z,51
2019-05-13T06:25:15.076Z,53
2019-05-13T06:35:18.420Z,53
2019-05-13T06:45:21.974Z,54
2019-05-13T06:55:25.298Z,56
2019-05-13T07:05:28.639Z,56
2019-05-13T07:15:31.987Z,57
2019-05-13T07:25:35.316Z,58
2019-05-13T07:35:38.642Z,58
2019-05-13T07:45:42.786Z,62
2019-05-13T07:55:46.120Z,66
2019-05-13T08:05:51.559Z,63
2019-05-13T08:15:55.124Z,63
2019-05-13T08:25:58.499Z,62
2019-05-13T08:36:02.182Z,62
2019-05-13T08:46:05.568Z,59
2019-05-13T08:56:08.893Z,57
2019-05-13T09:06:12.226Z,58
2019-05-13T09:16:15.549Z,56
2019-05-13T09:26:18.880Z,60
2019-05-13T09:36:22.207Z,61
2019-05-13T09:46:25.619Z,60
2019-05-13T09:56:28.997Z,62
2019-05-13T10:06:35.160Z,64
2019-05-13T10:16:38.522Z,67
2019-05-13T10:26:43.539Z,49
2019-05-13T10:36:46.924Z,43
2019-05-13T10:46:52.526Z,51
2019-05-13T10:57:04.099Z,60
2019-05-13T11:07:07.691Z,64
2019-05-13T11:17:13.718Z,65
2019-05-13T11:27:17.618Z,61
2019-05-13T11:37:23.590Z,66
2019-05-13T11:47:26.929Z,61
2019-05-13T11:57:31.895Z,65
2019-05-13T12:07:35.289Z,66
2019-05-13T12:17:38.640Z,67
2019-05-13T12:27:46.001Z,69
2019-05-13T12:37:53.500Z,70
2019-05-13T12:47:56.969Z,70
2019-05-13T12:58:03.169Z,65
2019-05-13T13:08:49.128Z,70
2019-05-13T13:18:54.702Z,69
2019-05-13T13:28:58.432Z,69
2019-05-13T13:39:04.174Z,68
2019-05-13T13:49:07.536Z,68
2019-05-13T13:59:14.490Z,65
2019-05-13T14:09:17.861Z,64
2019-05-13T14:19:22.113Z,63
2019-05-13T14:29:49.264Z,67
2019-05-13T14:39:55.933Z,72
2019-05-13T14:50:02.387Z,74
2019-05-13T15:00:05.746Z,78
2019-05-13T15:10:09.104Z,79
2019-05-13T15:20:12.602Z,82
2019-05-13T15:30:18.582Z,83
2019-05-13T15:40:22.305Z,82
2019-05-13T15:50:25.893Z,83
2019-05-13T16:00:29.473Z,79
2019-05-13T16:10:32.829Z,79
2019-05-13T16:20:36.147Z,77
2019-05-13T16:30:42.610Z,73
2019-05-13T16:40:46.461Z,76
2019-05-13T16:50:49.808Z,75
2019-05-13T17:00:56.204Z,73
2019-05-13T17:10:59.553Z,72
2019-05-13T17:21:05.420Z,72
2019-05-13T17:31:08.749Z,72
2019-05-13T17:41:14.786Z,70
2019-05-13T17:51:18.127Z,71
2019-05-13T18:01:21.506Z,70
2019-05-13T18:11:24.847Z,68
2019-05-13T18:21:28.182Z,67
2019-05-13T18:31:31.513Z,67
2019-05-13T18:41:34.863Z,67
2019-05-13T18:51:38.199Z,66
2019-05-13T19:01:41.530Z,67
2019-05-13T19:11:44.862Z,66
2019-05-13T19:21:48.204Z,66
2019-05-13T19:31:51.526Z,67
2019-05-13T19:41:54.836Z,65
2019-05-13T19:51:58.179Z,65
2019-05-13T20:02:01.813Z,65
2019-05-13T20:12:05.167Z,65
2019-05-13T20:22:08.490Z,64
2019-05-13T20:32:11.969Z,63
2019-05-13T20:42:15.294Z,63
2019-05-13T20:52:18.626Z,63
2019-05-13T21:02:22.462Z,64
2019-05-13T21:12:25.840Z,63
2019-05-13T21:22:31.610Z,63
2019-05-13T21:32:35.106Z,63
2019-05-13T21:42:38.427Z,63
2019-05-13T21:52:42.158Z,62
2019-05-13T22:02:45.513Z,62
2019-05-13T22:12:48.869Z,61
2019-05-13T22:22:52.331Z,61
2019-05-13T22:32:55.680Z,61
2019-05-13T22:42:59.015Z,61
2019-05-13T22:53:02.351Z,59
2019-05-13T23:03:05.730Z,60
2019-05-13T23:13:09.076Z,61
2019-05-13T23:23:12.401Z,59
2019-05-13T23:33:15.753Z,58
2019-05-13T23:43:19.098Z,59
2019-05-13T23:53:24.945Z,58
